Time;durP1;ratioP1;P1;durP2;ratioP2;P2;SDS_P1;SDS_P2;PMS_P1;PMS_P2;Temp;Humidity;BMP_temperature;BMP_pressure;BME280_temperature;BME280_humidity;BME280_pressure;Samples;Min_cycle;Max_cycle;Signal;HPM_P1;HPM_P2
2022/03/27 00:00:43;;;;;;;6.22;3.00;;;7.30;99.90;;;;;;5003766;28;20045;-70
2022/03/27 00:03:08;;;;;;;6.18;2.70;;;7.30;99.90;;;;;;5005696;28;20034;-70
2022/03/27 00:05:34;;;;;;;8.50;2.77;;;7.30;99.90;;;;;;5003827;28;20041;-70
2022/03/27 00:08:00;;;;;;;6.03;2.77;;;7.30;99.90;;;;;;4986785;28;20189;-70
2022/03/27 00:10:26;;;;;;;7.03;2.58;;;7.30;99.90;;;;;;4989718;28;20865;-70
2022/03/27 00:12:52;;;;;;;9.07;3.28;;;7.30;99.90;;;;;;5005254;28;20041;-70
2022/03/27 00:15:17;;;;;;;9.07;2.73;;;7.30;99.90;;;;;;5002887;28;20521;-70
2022/03/27 00:17:43;;;;;;;10.10;3.23;;;7.30;99.90;;;;;;5002061;28;20022;-70
2022/03/27 00:20:09;;;;;;;13.30;4.25;;;7.30;99.90;;;;;;4988635;28;20285;-70
2022/03/27 00:22:39;;;;;;;22.52;7.43;;;7.30;99.90;;;;;;5006029;28;20117;-70
2022/03/27 00:25:06;;;;;;;12.27;5.70;;;7.30;99.90;;;;;;4986347;28;20042;-70
2022/03/27 00:27:32;;;;;;;14.50;5.95;;;7.30;99.90;;;;;;4989620;28;20273;-70
2022/03/27 00:29:58;;;;;;;12.32;4.65;;;7.30;99.90;;;;;;5004061;28;20112;-70
2022/03/27 00:32:25;;;;;;;8.32;3.25;;;7.30;99.90;;;;;;5005215;28;20342;-70
2022/03/27 00:34:51;;;;;;;14.45;3.97;;;7.40;99.90;;;;;;5006582;28;20064;-70
2022/03/27 00:37:17;;;;;;;10.45;3.80;;;7.30;99.90;;;;;;5005676;28;20044;-71
2022/03/27 00:39:43;;;;;;;9.00;3.95;;;7.40;99.90;;;;;;5009391;28;20053;-70
2022/03/27 00:42:09;;;;;;;9.52;4.07;;;7.40;99.90;;;;;;5002568;28;20358;-70
2022/03/27 00:44:36;;;;;;;7.55;4.40;;;7.30;99.90;;;;;;4987767;28;20034;-70
2022/03/27 00:47:02;;;;;;;11.63;4.15;;;7.30;99.90;;;;;;5002925;28;20467;-70
2022/03/27 00:49:28;;;;;;;11.18;4.07;;;7.40;99.90;;;;;;5002792;28;20088;-70
2022/03/27 00:51:54;;;;;;;10.10;3.67;;;7.30;99.90;;;;;;4987252;28;20064;-70
2022/03/27 00:54:20;;;;;;;11.25;3.90;;;7.30;99.90;;;;;;4999068;28;20111;-70
2022/03/27 00:56:46;;;;;;;10.80;3.80;;;7.30;99.90;;;;;;4970297;28;20435;-70
2022/03/27 00:59:12;;;;;;;10.37;3.93;;;7.30;99.90;;;;;;4964111;28;20035;-70
2022/03/27 01:01:39;;;;;;;10.30;3.43;;;7.40;99.90;;;;;;4984791;28;20057;-70
2022/03/27 01:04:07;;;;;;;8.40;3.33;;;7.40;99.90;;;;;;4995392;28;20034;-70
2022/03/27 01:06:41;;;;;;;8.60;4.15;;;7.40;99.90;;;;;;4983114;28;20119;-70
2022/03/27 01:11:56;;;;;;;10.73;3.20;;;7.40;99.90;;;;;;4987097;28;20050;-70
2022/03/27 01:14:30;;;;;;;9.02;4.05;;;7.40;99.90;;;;;;5002844;28;20040;-70
2022/03/27 01:17:08;;;;;;;13.90;4.55;;;7.40;99.90;;;;;;4988939;28;20487;-70
2022/03/27 01:19:39;;;;;;;7.88;4.05;;;7.40;99.90;;;;;;4984175;28;20037;-70
2022/03/27 01:22:04;;;;;;;11.70;4.03;;;7.40;99.90;;;;;;5004370;28;20038;-70
2022/03/27 01:24:30;;;;;;;8.60;3.90;;;7.40;99.90;;;;;;5006580;28;20088;-69
2022/03/27 01:26:55;;;;;;;12.23;4.83;;;7.40;99.90;;;;;;5004844;28;20533;-70
2022/03/27 01:29:21;;;;;;;11.30;4.50;;;7.40;99.90;;;;;;4983750;28;20060;-70
2022/03/27 01:31:51;;;;;;;11.00;5.13;;;7.30;99.90;;;;;;5003051;28;20045;-71
2022/03/27 01:34:17;;;;;;;11.30;4.05;;;7.30;99.90;;;;;;4984058;28;20289;-68
2022/03/27 01:36:43;;;;;;;9.77;4.50;;;7.30;99.90;;;;;;4999642;28;20353;-69
2022/03/27 01:39:13;;;;;;;15.53;4.67;;;7.30;99.90;;;;;;5003145;28;20117;-70
2022/03/27 01:41:39;;;;;;;8.35;3.22;;;7.30;99.90;;;;;;5004844;28;20339;-69
2022/03/27 01:44:08;;;;;;;7.78;3.35;;;7.30;99.90;;;;;;4986549;28;20050;-69
2022/03/27 01:46:37;;;;;;;11.82;3.92;;;7.30;99.90;;;;;;4980947;28;20541;-69
2022/03/27 01:49:05;;;;;;;11.15;4.10;;;7.30;99.90;;;;;;4984644;28;20050;-70
2022/03/27 01:51:31;;;;;;;12.13;3.75;;;7.40;99.90;;;;;;4986458;28;20053;-69
2022/03/27 01:53:57;;;;;;;;;;;7.40;99.90;;;;;;4990601;28;20069;-69
2022/03/27 01:56:23;;;;;;;12.25;4.15;;;7.40;99.90;;;;;;4985608;28;20381;-69
2022/03/27 01:58:50;;;;;;;15.07;4.35;;;7.30;99.90;;;;;;4992175;28;20050;-70
2022/03/27 02:01:16;;;;;;;10.63;3.95;;;7.40;99.90;;;;;;4999060;28;20620;-69
2022/03/27 02:03:42;;;;;;;9.85;4.15;;;7.30;99.90;;;;;;4982299;28;20046;-69
2022/03/27 02:06:08;;;;;;;10.32;3.97;;;7.30;99.90;;;;;;4998667;28;20053;-69
2022/03/27 02:08:34;;;;;;;8.50;3.70;;;7.30;99.90;;;;;;4984499;28;20038;-69
2022/03/27 02:11:01;;;;;;;12.68;5.22;;;7.30;99.90;;;;;;4986634;28;20096;-70
2022/03/27 02:13:28;;;;;;;10.93;3.63;;;7.30;99.90;;;;;;4990122;28;20494;-69
2022/03/27 02:15:57;;;;;;;7.40;3.97;;;7.30;99.90;;;;;;5005631;28;20490;-69
2022/03/27 02:18:24;;;;;;;12.55;3.72;;;7.30;99.90;;;;;;4993806;28;20410;-69
2022/03/27 02:20:50;;;;;;;11.60;4.13;;;7.30;99.90;;;;;;5007445;28;20042;-69
2022/03/27 02:23:16;;;;;;;9.30;4.57;;;7.30;99.90;;;;;;5003979;28;20088;-70
2022/03/27 02:25:42;;;;;;;13.23;3.90;;;7.30;99.90;;;;;;4990002;28;20038;-69
2022/03/27 02:28:08;;;;;;;8.88;2.97;;;7.20;99.90;;;;;;4988564;28;20046;-69
2022/03/27 02:30:34;;;;;;;9.13;4.40;;;7.20;99.90;;;;;;4986689;28;20038;-70
2022/03/27 02:33:00;;;;;;;10.45;2.88;;;7.20;99.90;;;;;;5008530;28;20297;-69
2022/03/27 02:35:26;;;;;;;11.20;3.90;;;7.20;99.90;;;;;;5001905;28;20498;-69
2022/03/27 02:37:51;;;;;;;9.57;3.57;;;7.10;99.90;;;;;;5009144;28;20069;-69
2022/03/27 02:40:17;;;;;;;7.63;3.20;;;7.10;99.90;;;;;;4988596;28;20034;-69
2022/03/27 02:42:43;;;;;;;11.13;3.73;;;7.00;99.90;;;;;;4989302;28;20045;-70
2022/03/27 02:45:09;;;;;;;13.10;3.20;;;7.00;99.90;;;;;;5005500;28;20376;-69
2022/03/27 02:47:35;;;;;;;6.07;3.30;;;6.90;99.90;;;;;;5005431;28;20030;-69
2022/03/27 02:50:04;;;;;;;11.40;4.32;;;6.90;99.90;;;;;;4988785;28;20049;-69
2022/03/27 02:52:30;;;;;;;9.65;3.40;;;6.90;99.90;;;;;;4986281;28;22170;-70
2022/03/27 02:54:56;;;;;;;8.88;3.38;;;6.80;99.90;;;;;;5005231;28;20257;-69
2022/03/27 02:57:21;;;;;;;11.37;3.10;;;6.80;99.90;;;;;;5000575;28;20042;-69
2022/03/27 02:59:47;;;;;;;11.77;3.63;;;6.80;99.90;;;;;;4984394;28;20437;-69
2022/03/27 03:02:14;;;;;;;11.23;3.53;;;6.80;99.90;;;;;;5004223;28;20407;-69
2022/03/27 03:04:39;;;;;;;10.70;3.10;;;6.70;99.90;;;;;;4983699;28;20391;-69
2022/03/27 03:07:06;;;;;;;10.50;3.33;;;6.70;99.90;;;;;;4985470;28;20046;-69
2022/03/27 03:09:31;;;;;;;9.05;3.28;;;6.70;99.90;;;;;;4983367;28;20444;-70
2022/03/27 03:11:57;;;;;;;12.67;2.67;;;6.70;99.90;;;;;;5002495;28;20081;-70
2022/03/27 03:14:23;;;;;;;10.43;3.60;;;6.70;99.90;;;;;;5003219;28;20038;-69
2022/03/27 03:16:50;;;;;;;11.83;3.90;;;6.70;99.90;;;;;;5004779;28;20553;-69
2022/03/27 03:19:16;;;;;;;13.05;3.67;;;6.60;99.90;;;;;;4981178;28;20029;-70
2022/03/27 03:21:41;;;;;;;8.65;3.38;;;6.60;99.90;;;;;;4988416;28;20486;-69
2022/03/27 03:24:08;;;;;;;8.13;3.30;;;6.60;99.90;;;;;;5000971;28;20041;-70
2022/03/27 03:26:34;;;;;;;14.07;3.33;;;6.50;99.90;;;;;;5002773;28;20502;-69
2022/03/27 03:29:00;;;;;;;12.33;4.60;;;6.50;99.90;;;;;;4983088;28;20125;-69
2022/03/27 03:31:26;;;;;;;9.43;3.50;;;6.50;99.90;;;;;;5004124;28;20045;-69
2022/03/27 03:33:51;;;;;;;7.47;3.63;;;6.40;99.90;;;;;;4985574;28;20045;-69
2022/03/27 03:36:17;;;;;;;13.13;4.33;;;6.40;99.90;;;;;;5003412;28;20308;-70
2022/03/27 03:38:43;;;;;;;13.50;3.93;;;6.40;99.90;;;;;;4989068;28;20420;-69
2022/03/27 03:41:09;;;;;;;7.80;3.47;;;6.40;99.90;;;;;;5008346;28;20046;-69
2022/03/27 03:43:38;;;;;;;7.88;4.30;;;6.40;99.90;;;;;;5002143;28;20033;-69
2022/03/27 03:46:04;;;;;;;10.63;3.75;;;6.40;99.90;;;;;;5000316;28;20061;-70
2022/03/27 03:48:30;;;;;;;10.95;3.90;;;6.40;99.90;;;;;;5004501;28;20439;-69
2022/03/27 03:50:56;;;;;;;8.45;3.47;;;6.40;99.90;;;;;;5005637;28;20168;-70
2022/03/27 03:53:22;;;;;;;17.50;3.37;;;6.30;99.90;;;;;;4984323;28;20081;-69
2022/03/27 03:55:48;;;;;;;11.25;4.35;;;6.30;99.90;;;;;;4997100;28;20445;-70
2022/03/27 03:58:14;;;;;;;10.70;5.07;;;6.30;99.90;;;;;;4997166;28;20053;-69
2022/03/27 04:00:41;;;;;;;12.95;4.75;;;6.30;99.90;;;;;;5001629;28;20296;-69
2022/03/27 04:03:07;;;;;;;7.85;3.88;;;6.30;99.90;;;;;;4983955;28;20045;-69
2022/03/27 04:05:34;;;;;;;12.90;4.10;;;6.30;99.90;;;;;;4971343;28;20049;-69
2022/03/27 04:08:00;;;;;;;10.57;4.20;;;6.30;99.90;;;;;;5000726;28;20069;-70
2022/03/27 04:10:25;;;;;;;8.57;3.80;;;6.30;99.90;;;;;;4988406;28;20456;-69
2022/03/27 04:12:51;;;;;;;12.05;4.10;;;6.30;99.90;;;;;;5005501;28;20406;-69
2022/03/27 04:15:17;;;;;;;13.23;3.90;;;6.30;99.90;;;;;;5005033;28;20034;-70
2022/03/27 04:17:44;;;;;;;10.17;4.63;;;6.30;99.90;;;;;;5001641;28;20038;-69
2022/03/27 04:20:10;;;;;;;11.35;4.30;;;6.30;99.90;;;;;;4969325;28;20077;-70
2022/03/27 04:22:36;;;;;;;;;;;6.20;99.90;;;;;;4986922;28;20489;-69
2022/03/27 04:25:02;;;;;;;15.52;4.65;;;6.20;99.90;;;;;;4982555;28;19917;-69
2022/03/27 04:27:28;;;;;;;10.75;4.47;;;6.20;99.90;;;;;;4995326;28;20075;-69
2022/03/27 04:29:53;;;;;;;10.40;4.23;;;6.20;99.90;;;;;;4986124;28;20037;-69
2022/03/27 04:32:19;;;;;;;14.67;5.07;;;6.20;99.90;;;;;;5004732;28;20340;-70
2022/03/27 04:34:44;;;;;;;10.20;4.00;;;6.20;99.90;;;;;;5002595;28;20435;-70
2022/03/27 04:37:10;;;;;;;13.63;3.70;;;6.20;99.90;;;;;;4988632;28;20049;-69
2022/03/27 04:39:35;;;;;;;9.00;4.37;;;6.20;99.90;;;;;;5006386;28;20227;-69
2022/03/27 04:42:01;;;;;;;13.63;4.03;;;6.10;99.90;;;;;;5004234;28;20112;-69
2022/03/27 04:44:27;;;;;;;9.67;4.23;;;6.10;99.90;;;;;;5002592;28;20037;-69
2022/03/27 04:46:52;;;;;;;8.93;4.17;;;6.10;99.90;;;;;;5003111;28;20053;-69
2022/03/27 04:49:18;;;;;;;10.27;4.53;;;6.10;99.90;;;;;;5004812;28;20061;-69
2022/03/27 04:51:43;;;;;;;11.23;4.63;;;6.10;99.90;;;;;;5004924;28;20041;-69
2022/03/27 04:54:09;;;;;;;7.63;4.40;;;6.10;99.90;;;;;;5002285;28;20491;-69
2022/03/27 04:56:35;;;;;;;10.07;4.00;;;6.10;99.90;;;;;;4976394;28;20069;-69
2022/03/27 04:59:01;;;;;;;9.48;4.40;;;6.00;99.90;;;;;;4982529;28;20096;-69
2022/03/27 05:01:27;;;;;;;11.73;4.60;;;6.10;99.90;;;;;;4999494;28;20418;-70
2022/03/27 05:03:52;;;;;;;10.93;5.17;;;6.00;99.90;;;;;;4999222;28;20034;-69
2022/03/27 05:06:18;;;;;;;18.27;5.20;;;6.00;99.90;;;;;;5002845;28;20065;-70
2022/03/27 05:08:44;;;;;;;15.47;5.00;;;6.00;99.90;;;;;;5000076;28;20033;-70
2022/03/27 05:11:11;;;;;;;10.70;3.97;;;5.90;99.90;;;;;;5006495;28;20048;-69
2022/03/27 05:13:36;;;;;;;12.43;4.10;;;5.90;99.90;;;;;;5003818;28;20065;-69
2022/03/27 05:16:02;;;;;;;14.67;4.83;;;5.90;99.90;;;;;;4999567;28;20077;-69
2022/03/27 05:18:28;;;;;;;12.07;4.83;;;5.90;99.90;;;;;;4986294;28;20030;-69
2022/03/27 05:20:53;;;;;;;7.07;3.97;;;5.90;99.90;;;;;;4994534;28;20034;-69
2022/03/27 05:23:19;;;;;;;14.03;3.73;;;5.90;99.90;;;;;;4983288;28;20129;-70
2022/03/27 05:25:49;;;;;;;15.10;4.35;;;5.80;99.90;;;;;;4981353;28;20053;-70
2022/03/27 05:28:14;;;;;;;14.10;4.95;;;5.80;99.90;;;;;;4957511;28;20045;-69
2022/03/27 05:30:41;;;;;;;14.13;3.37;;;5.80;99.90;;;;;;5000481;28;20034;-69
2022/03/27 05:33:07;;;;;;;10.60;3.47;;;5.80;99.90;;;;;;4984105;28;20069;-69
2022/03/27 05:35:33;;;;;;;11.00;3.63;;;5.80;99.90;;;;;;4982367;28;20050;-69
2022/03/27 05:37:59;;;;;;;9.50;3.45;;;5.70;99.90;;;;;;4985051;28;20040;-69
2022/03/27 05:40:26;;;;;;;11.82;3.75;;;5.70;99.90;;;;;;5004662;28;20491;-71
2022/03/27 05:42:52;;;;;;;9.43;3.35;;;5.70;99.90;;;;;;4974346;28;20513;-71
2022/03/27 05:45:18;;;;;;;13.88;4.65;;;5.70;99.90;;;;;;4998809;28;20265;-72
2022/03/27 05:47:44;;;;;;;12.02;3.55;;;5.70;99.90;;;;;;4986129;28;20033;-73
2022/03/27 05:50:12;;;;;;;13.68;3.65;;;5.70;99.90;;;;;;5001078;28;20034;-73
2022/03/27 05:52:38;;;;;;;16.65;3.45;;;5.70;99.90;;;;;;5008350;28;20046;-72
2022/03/27 05:55:05;;;;;;;19.93;3.20;;;5.70;99.90;;;;;;5008574;28;20276;-72
2022/03/27 05:57:31;;;;;;;11.43;3.65;;;5.70;99.90;;;;;;5004969;28;20120;-72
2022/03/27 05:59:56;;;;;;;17.73;4.23;;;5.70;99.90;;;;;;4988321;28;20503;-73
2022/03/27 06:02:22;;;;;;;10.60;3.00;;;5.70;99.90;;;;;;5004762;28;20392;-72
2022/03/27 06:04:48;;;;;;;15.50;3.50;;;5.70;99.90;;;;;;5007295;28;20037;-72
2022/03/27 06:07:13;;;;;;;9.00;3.30;;;5.70;99.90;;;;;;4991345;28;20053;-71
2022/03/27 06:09:39;;;;;;;18.77;4.50;;;5.70;99.90;;;;;;5001225;28;20042;-72
2022/03/27 06:12:05;;;;;;;17.27;3.60;;;5.70;99.90;;;;;;4990963;28;20042;-72
2022/03/27 06:14:31;;;;;;;17.88;3.38;;;5.70;99.90;;;;;;4989087;28;20048;-73
2022/03/27 06:16:58;;;;;;;13.80;4.18;;;5.80;99.90;;;;;;4984165;28;20040;-72
2022/03/27 06:19:23;;;;;;;12.77;3.60;;;5.80;99.90;;;;;;4986852;28;20049;-72
2022/03/27 06:21:49;;;;;;;23.90;3.90;;;5.80;99.90;;;;;;5008619;28;20030;-72
2022/03/27 06:24:15;;;;;;;19.50;4.40;;;5.80;99.90;;;;;;5007379;28;20577;-72
2022/03/27 06:26:41;;;;;;;14.02;2.80;;;5.90;99.90;;;;;;5004038;28;20232;-72
2022/03/27 06:29:13;;;;;;;30.85;3.83;;;5.90;99.90;;;;;;4989212;28;20050;-72
2022/03/27 06:31:39;;;;;;;17.90;3.85;;;5.90;99.90;;;;;;4988735;28;20522;-72
2022/03/27 06:34:06;;;;;;;15.47;3.57;;;6.00;99.90;;;;;;5001100;28;20065;-73
2022/03/27 06:36:32;;;;;;;;;;;6.00;99.90;;;;;;4987948;28;20072;-72
2022/03/27 06:38:58;;;;;;;18.45;3.22;;;6.10;99.90;;;;;;4987804;28;20047;-72
2022/03/27 06:41:24;;;;;;;16.97;4.07;;;6.10;99.90;;;;;;4988020;28;20041;-72
2022/03/27 06:43:49;;;;;;;23.38;4.63;;;6.10;99.90;;;;;;5004965;28;20125;-72
2022/03/27 06:46:17;;;;;;;40.40;5.53;;;6.10;99.90;;;;;;5005556;28;20037;-72
2022/03/27 06:48:46;;;;;;;25.45;5.15;;;6.20;99.90;;;;;;5002824;28;20560;-72
2022/03/27 06:51:13;;;;;;;20.98;4.30;;;6.20;99.90;;;;;;5005130;28;20121;-72
2022/03/27 06:53:39;;;;;;;23.40;4.10;;;6.30;99.90;;;;;;5007686;28;20365;-72
2022/03/27 06:56:05;;;;;;;19.23;4.05;;;6.30;99.90;;;;;;5005692;28;20050;-72
2022/03/27 06:58:31;;;;;;;18.98;4.05;;;6.40;99.90;;;;;;4977070;28;20045;-72
2022/03/27 07:03:41;;;;;;;31.17;4.68;;;6.40;99.90;;;;;;4987238;28;20049;-72
2022/03/27 07:06:07;;;;;;;24.50;5.22;;;6.50;99.90;;;;;;4995776;28;20052;-72
2022/03/27 07:08:33;;;;;;;24.27;4.33;;;6.60;99.90;;;;;;4989498;28;20128;-72
2022/03/27 07:10:58;;;;;;;20.83;4.20;;;6.60;99.90;;;;;;4987869;28;20142;-72
2022/03/27 07:13:24;;;;;;;21.90;4.17;;;6.60;99.90;;;;;;5005502;28;20042;-72
2022/03/27 07:15:50;;;;;;;27.33;4.27;;;6.70;99.90;;;;;;5007061;28;20048;-72
2022/03/27 07:18:17;;;;;;;18.13;3.87;;;6.70;99.90;;;;;;5006634;28;20486;-72
2022/03/27 07:20:45;;;;;;;19.67;4.50;;;6.80;99.90;;;;;;4985663;28;20049;-73
2022/03/27 07:23:13;;;;;;;27.45;4.63;;;6.90;99.90;;;;;;5009942;28;20042;-72
2022/03/27 07:25:42;;;;;;;26.85;4.05;;;6.90;99.90;;;;;;5004380;28;20046;-72
2022/03/27 07:28:09;;;;;;;18.77;4.47;;;7.00;99.90;;;;;;4982341;28;20482;-72
2022/03/27 07:30:36;;;;;;;32.58;4.78;;;7.00;99.90;;;;;;5001930;28;20034;-72
2022/03/27 07:33:02;;;;;;;;;;;7.10;99.90;;;;;;5007906;28;20033;-72
2022/03/27 07:35:30;;;;;;;32.45;3.97;;;7.20;99.90;;;;;;5002797;28;19924;-72
2022/03/27 07:37:58;;;;;;;20.50;4.20;;;7.30;99.90;;;;;;4983274;28;20157;-72
2022/03/27 07:40:24;;;;;;;30.95;4.88;;;7.30;99.90;;;;;;4985123;28;20053;-72
2022/03/27 07:42:51;;;;;;;36.58;5.53;;;7.40;99.90;;;;;;5007873;28;20124;-72
2022/03/27 07:45:21;;;;;;;;;;;7.50;99.90;;;;;;4986944;28;20410;-73
2022/03/27 07:47:50;;;;;;;30.98;5.68;;;7.60;99.90;;;;;;4986976;28;20477;-72
2022/03/27 07:50:18;;;;;;;18.85;4.25;;;7.70;99.90;;;;;;5005882;28;20542;-72
2022/03/27 07:52:47;;;;;;;29.58;5.25;;;7.80;99.90;;;;;;4986058;28;20342;-72
2022/03/27 07:55:15;;;;;;;30.05;4.75;;;7.80;99.90;;;;;;5026325;22;20039;-69
2022/03/27 07:57:45;;;;;;;27.90;4.78;;;7.90;99.90;;;;;;5053182;28;20174;-68
2022/03/27 08:00:13;;;;;;;22.00;4.13;;;8.00;99.90;;;;;;5051882;28;20154;-68
2022/03/27 08:02:39;;;;;;;28.67;4.65;;;8.10;99.90;;;;;;5055922;28;20040;-69
2022/03/27 08:05:05;;;;;;;27.15;5.05;;;8.10;99.90;;;;;;5059335;28;20043;-69
2022/03/27 08:07:32;;;;;;;20.88;4.82;;;8.30;99.90;;;;;;5061204;28;20075;-69
2022/03/27 08:09:59;;;;;;;31.50;4.93;;;8.30;99.90;;;;;;5053036;28;20049;-69
2022/03/27 08:12:25;;;;;;;26.17;5.63;;;8.30;99.90;;;;;;5081732;28;20119;-69
2022/03/27 08:14:50;;;;;;;20.73;4.40;;;8.40;99.90;;;;;;5081661;28;20040;-68
2022/03/27 08:17:16;;;;;;;25.83;4.93;;;8.50;99.90;;;;;;5075015;28;20033;-69
2022/03/27 08:19:43;;;;;;;21.52;4.28;;;8.60;99.90;;;;;;5079927;28;20737;-68
2022/03/27 08:22:10;;;;;;;27.40;4.72;;;8.70;99.90;;;;;;5064560;28;20444;-69
2022/03/27 08:24:36;;;;;;;;;;;8.80;99.90;;;;;;5081098;28;20029;-69
2022/03/27 08:27:04;;;;;;;21.67;3.90;;;8.90;99.90;;;;;;5067214;28;20284;-69
2022/03/27 08:29:32;;;;;;;30.63;6.38;;;8.90;99.90;;;;;;5076923;28;20044;-69
2022/03/27 08:32:03;;;;;;;27.40;6.05;;;9.00;99.90;;;;;;5078284;28;20036;-69
2022/03/27 08:34:31;;;;;;;27.80;4.82;;;9.10;99.90;;;;;;5078749;28;20043;-69
2022/03/27 08:36:58;;;;;;;30.90;5.38;;;9.10;99.90;;;;;;5063661;28;20190;-69
2022/03/27 08:39:27;;;;;;;24.30;4.47;;;9.20;99.90;;;;;;5063361;28;20044;-69
2022/03/27 08:41:54;;;;;;;28.73;5.88;;;9.30;99.90;;;;;;5056550;28;20048;-69
2022/03/27 08:44:23;;;;;;;24.83;5.68;;;9.40;99.90;;;;;;5060592;28;20115;-69
2022/03/27 08:46:51;;;;;;;32.90;4.95;;;9.40;99.90;;;;;;5077051;28;20048;-68
2022/03/27 08:49:34;;;;;;;33.20;5.40;;;9.60;99.90;;;;;;5083335;28;20044;-69
2022/03/27 08:52:23;;;;;;;25.20;6.00;;;9.60;99.90;;;;;;5070129;28;20040;-69
2022/03/27 08:55:06;;;;;;;33.58;5.57;;;9.70;99.90;;;;;;5051589;28;20036;-69
2022/03/27 08:57:58;;;;;;;23.65;5.53;;;9.80;99.90;;;;;;5060124;28;20056;-68
2022/03/27 09:00:27;;;;;;;24.83;4.85;;;9.90;99.90;;;;;;5073361;28;20888;-69
2022/03/27 09:02:53;;;;;;;27.35;5.78;;;10.00;99.90;;;;;;5074614;28;20040;-69
2022/03/27 09:05:20;;;;;;;24.55;4.75;;;10.10;99.90;;;;;;5042060;28;20461;-69
2022/03/27 09:07:46;;;;;;;25.70;4.82;;;10.10;99.90;;;;;;5053672;28;20045;-69
2022/03/27 09:10:12;;;;;;;26.10;5.53;;;10.20;99.90;;;;;;5058906;28;20135;-69
2022/03/27 09:12:38;;;;;;;23.85;3.88;;;10.30;99.90;;;;;;5078988;28;20120;-69
2022/03/27 09:15:08;;;;;;;26.58;4.60;;;10.40;99.90;;;;;;5074258;28;20072;-68
2022/03/27 09:18:04;;;;;;;25.15;5.18;;;10.40;99.90;;;;;;5071374;28;20554;-69
2022/03/27 09:20:40;;;;;;;21.92;4.75;;;10.50;99.90;;;;;;5054087;28;20443;-69
2022/03/27 09:23:22;;;;;;;32.90;5.75;;;10.60;99.90;;;;;;5072576;28;20119;-69
2022/03/27 09:26:06;;;;;;;21.48;4.40;;;10.80;99.90;;;;;;5048651;28;20596;-69
2022/03/27 09:28:32;;;;;;;22.83;4.15;;;10.90;99.90;;;;;;5049417;28;20048;-69
2022/03/27 09:31:00;;;;;;;32.30;4.93;;;11.00;99.90;;;;;;5073826;28;20036;-69
2022/03/27 09:33:46;;;;;;;25.75;5.47;;;11.10;99.90;;;;;;5057457;28;20036;-69
2022/03/27 09:36:18;;;;;;;29.55;5.50;;;11.10;99.90;;;;;;5049396;28;20057;-69
2022/03/27 09:39:22;;;;;;;32.47;5.18;;;11.20;99.90;;;;;;5074454;28;20416;-69
2022/03/27 09:42:03;;;;;;;23.88;4.75;;;11.40;99.90;;;;;;5053252;28;20040;-70
2022/03/27 09:44:28;;;;;;;23.00;4.38;;;11.60;99.90;;;;;;5073812;28;20093;-69
2022/03/27 09:47:01;;;;;;;26.37;5.10;;;11.70;99.90;;;;;;5071258;28;20056;-69
2022/03/27 09:49:35;;;;;;;17.45;4.35;;;11.80;99.90;;;;;;5080024;28;20056;-69
2022/03/27 09:52:11;;;;;;;17.60;4.22;;;11.90;99.90;;;;;;5068383;28;20036;-69
2022/03/27 09:54:52;;;;;;;20.52;3.92;;;12.10;99.90;;;;;;5073986;28;20055;-69
2022/03/27 09:57:28;;;;;;;24.75;5.57;;;12.10;99.90;;;;;;5067799;28;20275;-69
2022/03/27 09:59:56;;;;;;;27.23;4.65;;;12.20;99.90;;;;;;5071453;28;20032;-70
2022/03/27 10:02:26;;;;;;;21.33;4.43;;;12.30;99.90;;;;;;5067915;28;20056;-69
2022/03/27 10:05:04;;;;;;;25.05;4.18;;;12.40;99.90;;;;;;5067678;28;20079;-71
2022/03/27 10:07:34;;;;;;;24.13;4.38;;;12.50;99.90;;;;;;5056379;28;20127;-69
2022/03/27 10:10:00;;;;;;;18.95;3.95;;;12.70;99.90;;;;;;5071530;28;20047;-69
2022/03/27 10:12:28;;;;;;;25.75;4.65;;;12.70;99.90;;;;;;5076342;28;20122;-69
2022/03/27 10:15:03;;;;;;;22.98;4.78;;;12.80;99.90;;;;;;5061221;28;20051;-69
2022/03/27 10:17:32;;;;;;;32.40;4.45;;;12.90;99.90;;;;;;5067020;28;20070;-69
2022/03/27 10:20:13;;;;;;;18.80;5.22;;;13.00;99.90;;;;;;5076946;28;20052;-69
2022/03/27 10:22:42;;;;;;;20.38;3.67;;;13.10;97.30;;;;;;5061448;28;20067;-70
2022/03/27 10:25:10;;;;;;;14.85;3.28;;;13.20;97.00;;;;;;5069761;28;20036;-70
2022/03/27 10:27:38;;;;;;;17.35;3.95;;;13.30;98.10;;;;;;5048384;28;20040;-69
2022/03/27 10:30:06;;;;;;;16.80;3.38;;;13.40;95.30;;;;;;5072880;28;20463;-69
2022/03/27 10:32:33;;;;;;;13.88;3.15;;;13.50;87.90;;;;;;5058261;28;20056;-69
2022/03/27 10:35:14;;;;;;;10.98;3.22;;;13.60;86.00;;;;;;5052366;28;20150;-69
2022/03/27 10:38:06;;;;;;;21.40;3.22;;;13.60;82.70;;;;;;5079099;28;20097;-69
2022/03/27 10:40:52;;;;;;;13.77;3.50;;;13.60;76.00;;;;;;5056919;28;20113;-69
2022/03/27 10:43:42;;;;;;;13.00;3.10;;;13.70;71.60;;;;;;5073941;28;20075;-69
2022/03/27 10:46:21;;;;;;;11.30;2.88;;;13.80;73.00;;;;;;5070092;28;20040;-69
2022/03/27 10:48:49;;;;;;;12.82;3.20;;;14.00;74.80;;;;;;5083339;28;20040;-69
2022/03/27 10:51:28;;;;;;;13.27;3.13;;;14.00;72.80;;;;;;5069583;28;20487;-69
2022/03/27 10:54:16;;;;;;;12.70;3.30;;;14.10;68.20;;;;;;5063381;28;20063;-70
2022/03/27 10:56:43;;;;;;;15.18;3.40;;;14.20;64.10;;;;;;5082532;28;20044;-69
2022/03/27 10:59:21;;;;;;;12.48;2.90;;;14.20;66.00;;;;;;5066177;28;20043;-69
2022/03/27 11:01:51;;;;;;;11.55;2.40;;;14.20;64.20;;;;;;5067795;28;20757;-70
2022/03/27 11:04:18;;;;;;;10.48;2.63;;;14.30;64.20;;;;;;5051396;28;20041;-70
2022/03/27 11:07:16;;;;;;;11.93;2.63;;;14.30;64.60;;;;;;5067322;28;20031;-70
2022/03/27 11:09:44;;;;;;;13.80;2.72;;;14.50;64.60;;;;;;5072561;28;20226;-70
2022/03/27 11:12:22;;;;;;;13.80;2.80;;;14.50;64.00;;;;;;5046635;28;20505;-70
2022/03/27 11:14:59;;;;;;;12.45;2.83;;;14.70;62.80;;;;;;5061997;28;20044;-69
2022/03/27 11:17:40;;;;;;;13.60;2.60;;;14.80;65.10;;;;;;5064557;28;20082;-70
2022/03/27 11:20:11;;;;;;;11.02;2.78;;;14.90;62.80;;;;;;5076548;28;20500;-70
2022/03/27 11:25:44;;;;;;;12.80;2.78;;;15.10;60.30;;;;;;5014944;28;20447;-71
2022/03/27 11:28:23;;;;;;;9.95;2.40;;;15.10;61.30;;;;;;4966060;28;20052;-70
2022/03/27 11:30:52;;;;;;;10.45;2.25;;;15.20;62.10;;;;;;5032635;28;20042;-70
2022/03/27 11:33:21;;;;;;;11.65;2.45;;;15.30;61.30;;;;;;5047258;28;20040;-71
2022/03/27 11:36:19;;;;;;;9.60;2.72;;;15.40;61.10;;;;;;4992487;28;20334;-71
2022/03/27 11:39:04;;;;;;;12.02;2.70;;;15.60;60.10;;;;;;5010118;22;20048;-68
2022/03/27 11:41:44;;;;;;;10.85;2.30;;;15.60;59.30;;;;;;4958805;28;20620;-67
2022/03/27 11:44:16;;;;;;;9.25;2.00;;;15.60;59.10;;;;;;4923274;28;20288;-69
2022/03/27 11:46:50;;;;;;;9.40;2.05;;;15.60;59.10;;;;;;5004775;28;20057;-68
2022/03/27 11:49:20;;;;;;;14.18;2.70;;;15.70;57.90;;;;;;4882863;28;20598;-75
2022/03/27 11:51:48;;;;;;;8.35;2.33;;;15.70;58.40;;;;;;4842923;28;20532;-69
2022/03/27 11:54:22;;;;;;;13.25;3.03;;;15.80;58.80;;;;;;5018435;28;20037;-75
2022/03/27 11:56:56;;;;;;;15.02;3.15;;;15.90;57.90;;;;;;4915575;28;20702;-73
2022/03/27 11:59:26;;;;;;;13.93;2.10;;;16.00;58.50;;;;;;4858159;28;20155;-68
2022/03/27 12:02:03;;;;;;;14.88;3.40;;;16.10;58.50;;;;;;4834164;28;20107;-69
2022/03/27 12:04:29;;;;;;;15.65;2.92;;;16.30;57.90;;;;;;4997859;28;20038;-68
2022/03/27 12:07:00;;;;;;;11.00;2.20;;;16.30;57.80;;;;;;5008804;28;20061;-68
2022/03/27 12:09:28;;;;;;;10.77;2.55;;;16.30;55.10;;;;;;5001202;28;20045;-68
2022/03/27 12:12:14;;;;;;;17.33;3.28;;;16.30;56.40;;;;;;4997781;28;20057;-69
2022/03/27 12:15:04;;;;;;;11.80;2.47;;;16.40;56.20;;;;;;5019164;28;20042;-68
2022/03/27 12:17:32;;;;;;;10.55;2.67;;;16.50;56.00;;;;;;4999319;28;20049;-68
2022/03/27 12:20:11;;;;;;;12.30;2.05;;;16.60;56.60;;;;;;5009643;28;20131;-68
2022/03/27 12:22:41;;;;;;;15.38;2.70;;;16.70;54.40;;;;;;5001128;28;20053;-68
2022/03/27 12:25:28;;;;;;;13.18;2.38;;;16.70;55.40;;;;;;5000405;28;20048;-68
2022/03/27 12:30:45;;;;;;;12.63;2.38;;;16.80;53.60;;;;;;5009785;28;20042;-68
2022/03/27 12:33:11;;;;;;;8.82;2.65;;;16.80;54.30;;;;;;4993270;28;20396;-68
2022/03/27 12:35:37;;;;;;;12.35;1.90;;;16.90;54.60;;;;;;5009852;28;20115;-68
2022/03/27 12:38:03;;;;;;;10.75;2.60;;;17.00;54.60;;;;;;5020069;28;20037;-68
2022/03/27 12:40:28;;;;;;;12.88;2.35;;;17.00;52.90;;;;;;4989689;28;20041;-68
2022/03/27 12:43:09;;;;;;;7.68;1.95;;;17.10;53.90;;;;;;5008479;28;20037;-68
2022/03/27 12:45:40;;;;;;;7.75;1.92;;;17.20;53.50;;;;;;5018525;28;20229;-68
2022/03/27 12:48:11;;;;;;;8.35;1.75;;;17.20;52.70;;;;;;5003094;28;20057;-67
2022/03/27 12:50:39;;;;;;;12.27;2.30;;;17.30;52.80;;;;;;4994729;28;20402;-68
2022/03/27 12:53:12;;;;;;;10.93;2.83;;;17.40;52.90;;;;;;5018495;28;20108;-68
2022/03/27 12:55:48;;;;;;;7.05;1.80;;;17.50;52.20;;;;;;4999941;28;20041;-68
2022/03/27 12:58:16;;;;;;;11.88;2.67;;;17.40;52.00;;;;;;4973160;28;20064;-68
2022/03/27 13:00:43;;;;;;;12.25;2.00;;;17.50;52.60;;;;;;4996464;28;20038;-68
2022/03/27 13:03:16;;;;;;;7.50;2.40;;;17.40;52.50;;;;;;5016563;28;20136;-68
2022/03/27 13:06:01;;;;;;;12.63;2.75;;;17.40;52.30;;;;;;4995039;28;20610;-67
2022/03/27 13:08:31;;;;;;;14.50;2.50;;;17.40;51.90;;;;;;5000260;28;20033;-68